Аэропорт: Гостомель. Киев

ICAO: UKKM

METAR:
2021-01-19 11:00:00
UKKM 191100Z AUTO 31002MPS 9000 NCD M14/M18 Q1018
METAR:
2021-01-18 11:05:00
TAF UKKM 181105Z 1812/1912 32003G08MPS 6000 BKN012 TEMPO 1812/1912 29003MPS 2100 -SN BR OVC006